Time;durP1;ratioP1;P1;durP2;ratioP2;P2;SDS_P1;SDS_P2;PMS_P1;PMS_P2;Temp;Humidity;BMP_temperature;BMP_pressure;BME280_temperature;BME280_humidity;BME280_pressure;Samples;Min_cycle;Max_cycle;Signal;HPM_P1;HPM_P2
2022/11/27 00:00:59;;;;;;;22.47;15.87;;;;;;;3.10;nan;99328.91;5014674;28;20222;-70
2022/11/27 00:03:26;;;;;;;25.70;16.33;;;;;;;3.03;nan;99321.75;5014594;28;20213;-70
2022/11/27 00:05:57;;;;;;;24.40;17.13;;;;;;;2.93;nan;99313.88;5014645;28;20198;-70
2022/11/27 00:08:27;;;;;;;23.33;16.40;;;;;;;2.89;nan;99319.56;5014387;28;20221;-70
2022/11/27 00:10:53;;;;;;;22.13;15.73;;;;;;;2.85;nan;99318.16;5014208;28;20601;-70
2022/11/27 00:13:20;;;;;;;24.73;16.33;;;;;;;2.76;nan;99319.00;5014582;28;20203;-70
2022/11/27 00:15:46;;;;;;;68.87;17.10;;;;;;;2.65;nan;99316.50;5014439;28;20229;-70
2022/11/27 00:18:13;;;;;;;55.67;18.00;;;;;;;2.64;nan;99314.84;5014186;28;20207;-70
2022/11/27 00:20:39;;;;;;;21.40;15.93;;;;;;;2.65;nan;99311.25;5014361;28;20227;-70
2022/11/27 00:23:05;;;;;;;19.40;14.87;;;;;;;2.70;nan;99314.28;5014393;28;20211;-70
2022/11/27 00:25:32;;;;;;;18.87;14.83;;;;;;;2.71;nan;99310.72;5014419;28;20210;-70
2022/11/27 00:27:58;;;;;;;20.53;15.10;;;;;;;2.64;nan;99294.69;5015118;28;20206;-71
2022/11/27 00:30:25;;;;;;;19.73;14.43;;;;;;;2.71;nan;99287.09;5014166;28;20207;-70
2022/11/27 00:32:51;;;;;;;18.77;14.40;;;;;;;2.69;nan;99289.84;5014178;28;20322;-71
2022/11/27 00:35:17;;;;;;;21.50;15.20;;;;;;;2.67;nan;99285.72;5014120;28;20217;-70
2022/11/27 00:37:44;;;;;;;22.13;14.60;;;;;;;2.59;nan;99281.16;5014114;28;20209;-71
2022/11/27 00:40:10;;;;;;;19.70;14.57;;;;;;;2.58;nan;99289.16;5013973;28;20210;-71
2022/11/27 00:42:37;;;;;;;18.67;15.47;;;;;;;2.68;nan;99282.09;5013745;28;20684;-70
2022/11/27 00:45:03;;;;;;;21.00;15.10;;;;;;;2.56;nan;99277.97;5013627;28;20211;-71
2022/11/27 00:47:30;;;;;;;18.97;13.77;;;;;;;2.59;nan;99273.28;5013694;28;20202;-71
2022/11/27 00:49:56;;;;;;;17.77;13.80;;;;;;;2.56;nan;99263.06;5013576;28;20217;-70
2022/11/27 00:52:22;;;;;;;17.70;13.57;;;;;;;2.50;nan;99265.41;5013437;28;20793;-70
2022/11/27 00:54:49;;;;;;;18.70;12.87;;;;;;;2.39;nan;99265.56;5013093;28;20674;-70
2022/11/27 00:57:15;;;;;;;17.07;13.30;;;;;;;2.39;nan;99260.31;5013310;28;20222;-70
2022/11/27 00:59:42;;;;;;;14.87;12.00;;;;;;;2.44;nan;99260.72;5013390;28;20662;-70
2022/11/27 01:02:08;;;;;;;15.77;12.03;;;;;;;2.40;nan;99260.16;5013247;28;20226;-70
2022/11/27 01:04:35;;;;;;;16.27;12.50;;;;;;;2.44;nan;99250.22;5013543;28;20211;-70
2022/11/27 01:07:01;;;;;;;14.83;12.00;;;;;;;2.38;nan;99251.59;5013645;28;20198;-70
2022/11/27 01:09:27;;;;;;;16.93;12.33;;;;;;;2.31;nan;99250.47;5013313;28;20202;-70
2022/11/27 01:11:54;;;;;;;16.10;12.10;;;;;;;2.23;nan;99245.13;5013238;28;20710;-70
2022/11/27 01:14:21;;;;;;;14.37;12.27;;;;;;;2.16;nan;99240.56;5013509;28;20206;-70
2022/11/27 01:16:47;;;;;;;15.50;12.17;;;;;;;2.12;nan;99233.94;5013156;28;20222;-70
2022/11/27 01:19:14;;;;;;;14.83;12.03;;;;;;;2.08;nan;99235.16;5013446;28;20298;-70
2022/11/27 01:21:41;;;;;;;16.83;11.93;;;;;;;2.07;nan;99230.91;5013411;28;20261;-70
2022/11/27 01:24:08;;;;;;;15.27;12.77;;;;;;;2.12;nan;99233.94;5013458;28;20210;-70
2022/11/27 01:26:34;;;;;;;17.17;12.47;;;;;;;1.95;nan;99235.44;5013463;28;20536;-70
2022/11/27 01:29:01;;;;;;;16.67;12.23;;;;;;;2.02;nan;99227.81;5013182;28;20210;-70
2022/11/27 01:31:30;;;;;;;14.27;12.73;;;;;;;2.03;nan;99232.13;5013041;28;20236;-70
2022/11/27 01:34:06;;;;;;;15.33;12.07;;;;;;;2.02;nan;99230.44;5013155;28;20680;-70
2022/11/27 01:36:34;;;;;;;13.90;11.87;;;;;;;2.05;nan;99235.44;5013402;28;20574;-70
2022/11/27 01:39:01;;;;;;;13.10;11.70;;;;;;;2.03;nan;99225.06;5013876;28;20214;-70
2022/11/27 01:41:33;;;;;;;16.53;11.97;;;;;;;1.96;nan;99229.22;5013367;28;20318;-70
2022/11/27 01:44:26;;;;;;;13.73;12.00;;;;;;;1.93;nan;99212.91;5013430;28;20191;-70
2022/11/27 01:47:06;;;;;;;15.13;12.00;;;;;;;1.95;nan;99211.84;5012940;28;20209;-70
2022/11/27 01:49:38;;;;;;;13.23;11.40;;;;;;;1.97;nan;99209.91;5013366;28;20278;-70
2022/11/27 01:52:15;;;;;;;17.63;11.40;;;;;;;1.87;nan;99208.22;5012864;28;20230;-70
2022/11/27 01:54:47;;;;;;;15.60;11.90;;;;;;;1.90;nan;99202.72;5013217;28;20195;-70
2022/11/27 01:57:18;;;;;;;15.93;12.20;;;;;;;1.90;nan;99202.72;5028317;28;20211;-70
2022/11/27 01:59:46;;;;;;;14.10;12.03;;;;;;;1.80;nan;99204.50;5013797;28;20197;-70
2022/11/27 02:02:12;;;;;;;14.27;11.67;;;;;;;1.84;nan;99203.25;5013175;28;20226;-70
2022/11/27 02:04:39;;;;;;;14.03;11.63;;;;;;;1.86;nan;99199.56;5012887;28;20211;-70
2022/11/27 02:07:05;;;;;;;15.13;10.73;;;;;;;1.81;nan;99203.53;5016157;28;20297;-71
2022/11/27 02:09:33;;;;;;;12.83;11.10;;;;;;;1.85;nan;99197.88;5016561;28;20582;-71
2022/11/27 02:12:23;;;;;;;13.47;10.77;;;;;;;1.77;nan;99202.16;5015230;28;20233;-70
2022/11/27 02:15:08;;;;;;;12.97;11.37;;;;;;;1.82;nan;99195.53;5016759;28;20580;-70
2022/11/27 02:17:49;;;;;;;12.20;10.90;;;;;;;1.77;nan;99191.66;5016387;28;20211;-70
2022/11/27 02:20:40;;;;;;;14.10;10.93;;;;;;;1.72;nan;99186.81;5016620;28;20413;-70
2022/11/27 02:23:27;;;;;;;15.33;10.90;;;;;;;1.73;nan;99188.50;5016679;28;20191;-71
2022/11/27 02:26:22;;;;;;;13.30;10.63;;;;;;;1.74;nan;99190.13;5017110;28;20278;-70
2022/11/27 02:29:02;;;;;;;13.47;10.70;;;;;;;1.70;nan;99186.13;5016254;28;20552;-71
2022/11/27 02:31:38;;;;;;;14.37;11.37;;;;;;;1.57;nan;99180.31;5016156;28;20619;-71
2022/11/27 02:34:16;;;;;;;13.57;10.70;;;;;;;1.46;nan;99185.69;5016385;28;20210;-70
2022/11/27 02:36:50;;;;;;;12.63;10.27;;;;;;;1.50;nan;99188.84;5016008;28;20210;-70
2022/11/27 02:39:31;;;;;;;14.90;10.93;;;;;;;1.43;nan;99191.19;5016424;28;20217;-71
2022/11/27 02:42:07;;;;;;;14.97;11.33;;;;;;;1.44;nan;99179.72;5016257;28;20226;-70
2022/11/27 02:44:38;;;;;;;14.33;10.60;;;;;;;1.49;nan;99179.34;5016328;28;20191;-70
2022/11/27 02:47:05;;;;;;;15.27;11.37;;;;;;;1.45;nan;99191.06;5016288;28;20186;-71
2022/11/27 02:49:34;;;;;;;16.80;11.27;;;;;;;1.48;nan;99181.13;5015920;28;20289;-70
2022/11/27 02:52:03;;;;;;;12.93;11.10;;;;;;;1.54;nan;99174.53;5015606;28;20274;-70
2022/11/27 02:54:31;;;;;;;12.90;10.57;;;;;;;1.53;nan;99178.94;5017126;28;20214;-70
2022/11/27 02:57:02;;;;;;;15.63;10.80;;;;;;;1.50;nan;99178.38;5015859;28;20222;-70
2022/11/27 02:59:31;;;;;;;13.90;11.50;;;;;;;1.42;nan;99175.59;5016025;28;20600;-70
2022/11/27 03:02:04;;;;;;;14.30;11.30;;;;;;;1.46;nan;99171.75;5015805;28;20227;-71
2022/11/27 03:04:40;;;;;;;11.47;10.37;;;;;;;1.49;nan;99171.47;5015862;28;20198;-71
2022/11/27 03:07:14;;;;;;;13.80;11.57;;;;;;;1.47;nan;99168.16;5015575;28;20270;-70
2022/11/27 03:09:45;;;;;;;12.73;10.53;;;;;;;1.34;nan;99165.78;5015705;28;20223;-71
2022/11/27 03:12:13;;;;;;;15.87;10.77;;;;;;;1.33;nan;99163.28;5015310;28;20313;-70
2022/11/27 03:14:42;;;;;;;13.40;10.77;;;;;;;1.31;nan;99171.28;5015605;28;20213;-70
2022/11/27 03:17:38;;;;;;;13.50;10.50;;;;;;;1.34;nan;99164.94;5014908;28;20230;-71
2022/11/27 03:20:23;;;;;;;14.83;10.70;;;;;;;1.30;nan;99176.69;5015520;28;20195;-70
2022/11/27 03:22:50;;;;;;;13.80;11.50;;;;;;;1.28;nan;99163.72;5015057;28;20218;-71
2022/11/27 03:25:16;;;;;;;12.73;10.73;;;;;;;1.29;nan;99162.75;5015169;28;20229;-70
2022/11/27 03:27:48;;;;;;;12.70;10.07;;;;;;;1.21;nan;99151.28;5015075;28;20215;-70
2022/11/27 03:30:15;;;;;;;12.63;11.30;;;;;;;1.28;nan;99155.00;5015413;28;20194;-71
2022/11/27 03:32:41;;;;;;;12.27;10.40;;;;;;;1.17;nan;99148.09;5015397;28;20290;-70
2022/11/27 03:35:11;;;;;;;14.07;11.23;;;;;;;1.20;nan;99149.63;5015277;28;20554;-70
2022/11/27 03:37:38;;;;;;;12.97;11.17;;;;;;;1.16;nan;99140.34;5015145;28;20321;-70
2022/11/27 03:40:06;;;;;;;13.30;10.97;;;;;;;1.09;nan;99150.56;5014796;28;20658;-71
2022/11/27 03:42:43;;;;;;;13.17;10.80;;;;;;;1.00;nan;99156.59;5014751;28;20309;-70
2022/11/27 03:45:33;;;;;;;13.43;10.83;;;;;;;1.02;nan;99153.81;5013940;28;20190;-71
2022/11/27 03:48:18;;;;;;;12.83;9.90;;;;;;;0.95;nan;99155.34;5015131;28;20197;-70
2022/11/27 03:51:13;;;;;;;11.10;9.40;;;;;;;0.92;nan;99158.19;5014766;28;20234;-70
2022/11/27 03:54:02;;;;;;;14.33;10.03;;;;;;;0.91;nan;99157.41;5011660;28;20209;-71
2022/11/27 03:56:40;;;;;;;13.17;10.60;;;;;;;1.00;nan;99159.22;5013646;28;20219;-70
2022/11/27 03:59:22;;;;;;;11.17;9.40;;;;;;;1.07;nan;99162.13;5015213;28;20199;-70
2022/11/27 04:01:49;;;;;;;12.80;10.37;;;;;;;1.04;nan;99152.72;5014417;28;20237;-70
2022/11/27 04:04:15;;;;;;;11.80;9.83;;;;;;;1.04;nan;99149.31;5014432;28;20206;-70
2022/11/27 04:06:42;;;;;;;12.83;9.90;;;;;;;1.06;nan;99147.38;5014258;28;20662;-70
2022/11/27 04:09:08;;;;;;;13.77;11.27;;;;;;;0.98;nan;99144.59;5014567;28;20208;-71
2022/11/27 04:11:34;;;;;;;13.97;11.80;;;;;;;1.09;nan;99141.88;5014527;28;20241;-70
2022/11/27 04:14:01;;;;;;;13.60;11.03;;;;;;;1.11;nan;99137.31;5014433;28;20203;-70
2022/11/27 04:16:27;;;;;;;22.27;11.60;;;;;;;1.01;nan;99137.31;5014425;28;20230;-71
2022/11/27 04:18:54;;;;;;;33.77;12.90;;;;;;;0.95;nan;99145.66;5014480;28;20206;-70
2022/11/27 04:21:20;;;;;;;13.60;11.30;;;;;;;0.88;nan;99141.94;5013934;28;20784;-71
2022/11/27 04:23:46;;;;;;;16.83;11.83;;;;;;;0.93;nan;99142.38;5013969;28;20705;-71
2022/11/27 04:26:13;;;;;;;16.73;11.97;;;;;;;0.90;nan;99141.81;5014177;28;20210;-70
2022/11/27 04:28:39;;;;;;;18.73;11.73;;;;;;;0.95;nan;99142.25;5013395;28;20580;-71
2022/11/27 04:31:06;;;;;;;13.10;10.87;;;;;;;0.95;nan;99137.00;5013886;28;20733;-70
2022/11/27 04:33:32;;;;;;;12.63;10.37;;;;;;;0.85;nan;99128.28;5013717;28;20217;-70
2022/11/27 04:35:58;;;;;;;13.87;11.00;;;;;;;0.80;nan;99127.88;5014098;28;20207;-70
2022/11/27 04:38:25;;;;;;;15.67;10.60;;;;;;;0.84;nan;99126.63;5014004;28;20230;-71
2022/11/27 04:40:52;;;;;;;12.77;10.77;;;;;;;0.87;nan;99119.34;5013751;28;20718;-70
2022/11/27 04:43:20;;;;;;;14.40;11.00;;;;;;;0.91;nan;99122.53;5014042;28;20241;-70
2022/11/27 04:45:46;;;;;;;15.37;11.13;;;;;;;0.89;nan;99124.47;5013534;28;20213;-70
2022/11/27 04:48:12;;;;;;;27.83;11.73;;;;;;;0.89;nan;99124.47;5013687;28;20206;-70
2022/11/27 04:50:39;;;;;;;74.67;13.30;;;;;;;0.93;nan;99117.97;5013581;28;20237;-70
2022/11/27 04:53:05;;;;;;;69.00;13.57;;;;;;;0.90;nan;99115.63;5013888;28;20201;-70
2022/11/27 04:55:32;;;;;;;97.77;14.70;;;;;;;0.93;nan;99116.19;5013917;28;20207;-70
2022/11/27 04:57:58;;;;;;;198.13;17.93;;;;;;;0.91;nan;99114.66;5013750;28;20223;-70
2022/11/27 05:00:25;;;;;;;205.27;16.67;;;;;;;0.91;nan;99119.91;5013451;28;20601;-70
2022/11/27 05:02:51;;;;;;;199.53;17.97;;;;;;;0.71;nan;99115.56;5013811;28;20203;-70
2022/11/27 05:05:17;;;;;;;144.67;14.90;;;;;;;0.71;nan;99115.56;5013774;28;20211;-70
2022/11/27 05:07:44;;;;;;;129.90;13.47;;;;;;;0.79;nan;99111.31;5013669;28;20208;-70
2022/11/27 05:10:10;;;;;;;72.87;13.83;;;;;;;0.79;nan;99105.25;5013322;28;20693;-71
2022/11/27 05:12:37;;;;;;;17.40;10.57;;;;;;;0.83;nan;99111.88;5013426;28;20316;-70
2022/11/27 05:15:03;;;;;;;17.97;11.03;;;;;;;0.79;nan;99111.31;5013636;28;20203;-70
2022/11/27 05:17:30;;;;;;;11.97;10.10;;;;;;;0.71;nan;99110.34;5013750;28;20222;-70
2022/11/27 05:19:56;;;;;;;12.17;9.90;;;;;;;0.70;nan;99106.03;5013255;28;20677;-71
2022/11/27 05:22:22;;;;;;;11.63;10.40;;;;;;;0.71;nan;99099.88;5013075;28;20242;-71
2022/11/27 05:24:49;;;;;;;12.93;9.77;;;;;;;0.73;nan;99097.94;5013048;28;20210;-70
2022/11/27 05:27:15;;;;;;;10.67;9.07;;;;;;;0.74;nan;99099.59;5013288;28;20202;-70
2022/11/27 05:29:42;;;;;;;25.40;10.57;;;;;;;0.90;nan;99097.31;5013537;28;20206;-70
2022/11/27 05:32:08;;;;;;;20.33;10.03;;;;;;;0.69;nan;99104.38;5012932;28;20254;-70
2022/11/27 05:34:35;;;;;;;31.63;10.63;;;;;;;0.72;nan;99096.28;5013304;28;20206;-70
2022/11/27 05:37:01;;;;;;;114.03;14.07;;;;;;;0.69;nan;99099.16;5013371;28;20222;-70
2022/11/27 05:39:27;;;;;;;18.97;10.60;;;;;;;0.76;nan;99095.88;5014731;28;20214;-70
2022/11/27 05:41:54;;;;;;;51.27;11.97;;;;;;;0.55;nan;99094.28;5017348;28;20237;-70
2022/11/27 05:44:20;;;;;;;26.17;11.30;;;;;;;0.49;nan;99090.38;5017101;28;20206;-70
2022/11/27 05:46:46;;;;;;;17.13;10.73;;;;;;;0.45;nan;99083.75;5017233;28;20218;-70
2022/11/27 05:49:15;;;;;;;11.97;9.10;;;;;;;0.60;nan;99092.09;5017120;28;20210;-70
2022/11/27 05:51:42;;;;;;;12.40;9.67;;;;;;;0.55;nan;99089.88;5016723;28;20246;-70
2022/11/27 05:54:09;;;;;;;10.57;8.67;;;;;;;0.51;nan;99091.09;5017025;28;20214;-70
2022/11/27 05:56:35;;;;;;;10.53;8.17;;;;;;;0.50;nan;99097.31;5016693;28;20206;-70
2022/11/27 05:59:02;;;;;;;9.07;8.17;;;;;;;0.63;nan;99097.06;5016975;28;20206;-70
2022/11/27 06:01:28;;;;;;;9.47;8.33;;;;;;;0.64;nan;99103.97;5016586;28;20237;-70
2022/11/27 06:03:54;;;;;;;10.03;9.03;;;;;;;0.53;nan;99106.69;5016965;28;20213;-70
2022/11/27 06:06:21;;;;;;;11.13;10.03;;;;;;;0.58;nan;99112.34;5016816;28;20202;-70
2022/11/27 06:08:48;;;;;;;9.33;8.30;;;;;;;0.59;nan;99100.91;5016896;28;20213;-70
2022/11/27 06:11:20;;;;;;;9.27;7.93;;;;;;;0.64;nan;99099.56;5016812;28;20223;-70
2022/11/27 06:13:47;;;;;;;9.07;8.13;;;;;;;0.61;nan;99094.59;5016611;28;20657;-70
2022/11/27 06:16:16;;;;;;;10.27;8.73;;;;;;;0.57;nan;99102.81;5016501;28;20677;-70
2022/11/27 06:18:43;;;;;;;8.73;7.93;;;;;;;0.52;nan;99095.38;5017121;28;20225;-71
2022/11/27 06:21:12;;;;;;;8.40;7.60;;;;;;;0.56;nan;99102.00;5016646;28;20229;-70
2022/11/27 06:23:41;;;;;;;10.00;8.20;;;;;;;0.59;nan;99099.13;5016671;28;20212;-70
2022/11/27 06:26:19;;;;;;;10.97;8.40;;;;;;;0.57;nan;99094.97;5016674;28;20207;-70
2022/11/27 06:28:47;;;;;;;10.73;8.67;;;;;;;0.40;nan;99106.06;5016614;28;20186;-70
2022/11/27 06:31:18;;;;;;;12.20;9.13;;;;;;;0.17;nan;99107.16;5016206;28;20226;-70
2022/11/27 06:33:46;;;;;;;9.70;8.70;;;;;;;0.22;nan;99105.00;5016593;28;20274;-70
2022/11/27 06:36:13;;;;;;;10.10;8.57;;;;;;;0.28;nan;99101.84;5016464;28;20301;-71
2022/11/27 06:38:39;;;;;;;9.73;8.73;;;;;;;0.24;nan;99107.31;5015943;28;20309;-70
2022/11/27 06:41:15;;;;;;;9.60;8.50;;;;;;;0.27;nan;99098.41;5015788;28;20709;-70
2022/11/27 06:43:42;;;;;;;10.17;8.57;;;;;;;0.17;nan;99093.13;5016233;28;20199;-70
2022/11/27 06:46:14;;;;;;;9.57;8.57;;;;;;;0.08;nan;99087.84;5016110;28;20214;-70
2022/11/27 06:48:40;;;;;;;9.87;8.77;;;;;;;0.04;nan;99078.59;5015766;28;20230;-70
2022/11/27 06:51:08;;;;;;;11.10;8.90;;;;;;;0.07;nan;99083.56;5014937;28;20238;-70
2022/11/27 06:53:37;;;;;;;10.07;9.10;;;;;;;0.09;nan;99092.94;5015845;28;20206;-70
2022/11/27 06:56:08;;;;;;;8.70;7.83;;;;;;;0.23;nan;99091.78;5016103;28;20206;-70
2022/11/27 06:58:35;;;;;;;11.60;8.77;;;;;;;0.24;nan;99090.81;5015598;28;20584;-70
2022/11/27 07:01:04;;;;;;;10.20;8.10;;;;;;;0.17;nan;99089.69;5015931;28;20222;-70
2022/11/27 07:03:31;;;;;;;10.43;8.67;;;;;;;0.14;nan;99080.31;5015864;28;20214;-71
2022/11/27 07:06:01;;;;;;;9.57;8.37;;;;;;;0.14;nan;99082.09;5015803;28;20206;-70
2022/11/27 07:08:28;;;;;;;9.50;8.50;;;;;;;0.13;nan;99077.81;5015374;28;20202;-70
2022/11/27 07:10:54;;;;;;;9.37;8.17;;;;;;;0.09;nan;99079.03;5015645;28;20233;-70
2022/11/27 07:13:21;;;;;;;10.07;8.40;;;;;;;0.14;nan;99082.91;5015749;28;20202;-71
2022/11/27 07:15:47;;;;;;;9.27;7.90;;;;;;;0.17;nan;99081.03;5015641;28;20447;-70
2022/11/27 07:18:13;;;;;;;10.03;7.37;;;;;;;0.24;nan;99091.63;5015530;28;20260;-71
2022/11/27 07:20:40;;;;;;;8.00;7.20;;;;;;;0.22;nan;99084.06;5015352;28;20223;-70
2022/11/27 07:23:06;;;;;;;8.60;7.17;;;;;;;0.15;nan;99076.72;5015586;28;20214;-71
2022/11/27 07:25:32;;;;;;;10.20;8.00;;;;;;;0.37;nan;99067.91;5015573;28;20216;-70
2022/11/27 07:27:59;;;;;;;10.33;7.73;;;;;;;0.47;nan;99062.72;5015187;28;20217;-70
2022/11/27 07:30:25;;;;;;;8.63;7.73;;;;;;;0.47;nan;99059.13;5015083;28;20216;-70
2022/11/27 07:32:52;;;;;;;8.43;7.33;;;;;;;0.32;nan;99050.94;5015347;28;20203;-70
2022/11/27 07:35:18;;;;;;;9.37;8.40;;;;;;;0.47;nan;99054.84;5015345;28;20339;-70
2022/11/27 07:37:44;;;;;;;9.40;7.40;;;;;;;0.53;nan;99041.28;5015059;28;20314;-71
2022/11/27 07:40:11;;;;;;;9.23;7.40;;;;;;;0.54;nan;99030.66;5015059;28;20216;-70
2022/11/27 07:42:37;;;;;;;9.20;7.30;;;;;;;0.48;nan;99028.56;5015024;28;20233;-70
2022/11/27 07:45:04;;;;;;;9.00;8.07;;;;;;;0.47;nan;99033.94;5014940;28;20212;-70
2022/11/27 07:47:30;;;;;;;8.80;7.90;;;;;;;0.53;nan;99025.56;5014711;28;20270;-70
2022/11/27 07:49:59;;;;;;;9.50;7.63;;;;;;;0.65;nan;99024.50;5015025;28;20233;-70
2022/11/27 07:52:25;;;;;;;9.00;7.00;;;;;;;0.64;nan;99012.38;5014630;28;20656;-71
2022/11/27 07:54:52;;;;;;;8.80;7.60;;;;;;;0.67;nan;99017.34;5014884;28;20253;-70
2022/11/27 07:57:18;;;;;;;11.43;7.93;;;;;;;0.70;nan;99015.28;5014881;28;20213;-70
2022/11/27 07:59:44;;;;;;;7.70;7.00;;;;;;;0.56;nan;99010.44;5014849;28;20305;-70
2022/11/27 08:02:14;;;;;;;8.37;7.43;;;;;;;0.67;nan;99015.53;5014595;28;20222;-70
2022/11/27 08:04:40;;;;;;;8.40;7.60;;;;;;;0.70;nan;99019.69;5013919;28;20202;-70
2022/11/27 08:07:06;;;;;;;8.13;7.33;;;;;;;0.61;nan;99023.94;5014589;28;20206;-70
2022/11/27 08:09:33;;;;;;;7.90;7.10;;;;;;;0.75;nan;99025.34;5013991;28;20213;-70
2022/11/27 08:11:59;;;;;;;9.57;7.27;;;;;;;0.77;nan;99026.03;5014537;28;20317;-70
2022/11/27 08:14:26;;;;;;;7.77;6.97;;;;;;;0.85;nan;99028.81;5014675;28;20239;-70
2022/11/27 08:16:52;;;;;;;7.40;6.70;;;;;;;0.79;nan;99024.94;5014855;28;20547;-70
2022/11/27 08:19:18;;;;;;;7.77;6.97;;;;;;;0.87;nan;99019.03;5014451;28;20226;-70
2022/11/27 08:21:45;;;;;;;7.90;7.03;;;;;;;0.88;nan;99020.69;5014258;28;20227;-70
2022/11/27 08:24:19;;;;;;;8.40;7.07;;;;;;;0.92;100.00;99014.22;5132217;27;20546;-72
2022/11/27 08:26:46;;;;;;;8.20;7.30;;;;;;;0.87;100.00;99011.19;5131708;28;20214;-70
2022/11/27 08:29:12;;;;;;;9.27;7.80;;;;;;;0.93;100.00;99018.50;5131454;28;20199;-70
2022/11/27 08:31:39;;;;;;;7.90;7.17;;;;;;;0.96;100.00;99007.75;5131062;27;20222;-70
2022/11/27 08:34:05;;;;;;;8.07;7.27;;;;;;;0.85;100.00;99006.06;5131525;28;20202;-70
2022/11/27 08:36:31;;;;;;;8.50;7.40;;;;;;;0.97;100.00;98991.06;5131127;27;20207;-70
2022/11/27 08:38:58;;;;;;;9.77;7.00;;;;;;;0.97;100.00;98997.16;5131297;28;20210;-70
2022/11/27 08:41:24;;;;;;;8.80;7.20;;;;;;;1.13;100.00;99005.28;5131110;28;20245;-70
2022/11/27 08:43:51;;;;;;;9.37;8.20;;;;;;;1.22;100.00;99006.28;5131124;28;20230;-70
2022/11/27 08:46:17;;;;;;;8.30;7.40;;;;;;;1.24;100.00;98996.47;5130969;27;20203;-70
2022/11/27 08:48:44;;;;;;;8.70;7.87;;;;;;;1.40;100.00;98994.13;5130754;28;20213;-70
2022/11/27 08:51:12;;;;;;;7.63;6.93;;;;;;;1.49;100.00;98993.31;5131293;28;20234;-70
2022/11/27 08:53:39;;;;;;;7.70;6.90;;;;;;;1.58;100.00;98993.28;5130858;27;20203;-70
2022/11/27 08:56:08;;;;;;;8.40;7.53;;;;;;;1.64;100.00;98994.50;5131725;27;20211;-70
2022/11/27 08:58:35;;;;;;;7.40;6.63;;;;;;;1.81;100.00;98983.31;5130478;27;20203;-70
2022/11/27 09:01:11;;;;;;;7.77;6.97;;;;;;;2.00;100.00;98978.00;5130649;27;20232;-70
2022/11/27 09:03:38;;;;;;;7.27;6.37;;;;;;;2.35;100.00;98970.28;5130613;27;20203;-70
2022/11/27 09:06:12;;;;;;;6.37;5.80;;;;;;;2.46;100.00;98973.53;5131098;27;20611;-70
2022/11/27 09:08:40;;;;;;;7.43;5.80;;;;;;;2.52;100.00;98964.28;5131107;27;20190;-70
2022/11/27 09:11:07;;;;;;;6.10;5.47;;;;;;;2.58;100.00;98967.09;5130838;27;20237;-69
2022/11/27 09:13:35;;;;;;;7.80;5.90;;;;;;;2.58;100.00;98968.94;5130560;27;20207;-70
2022/11/27 09:16:04;;;;;;;6.73;6.03;;;;;;;2.65;100.00;98973.44;5130132;27;20210;-70
2022/11/27 09:18:30;;;;;;;6.10;5.50;;;;;;;2.66;100.00;98976.91;5130247;27;20646;-70
2022/11/27 09:21:01;;;;;;;6.37;5.77;;;;;;;2.61;100.00;98968.59;5130594;28;20222;-71
2022/11/27 09:23:29;;;;;;;6.27;5.67;;;;;;;2.71;100.00;98974.66;5130414;27;20223;-70
2022/11/27 09:26:00;;;;;;;6.80;6.20;;;;;;;2.69;100.00;98980.06;5130572;27;20286;-70
2022/11/27 09:28:26;;;;;;;6.63;5.93;;;;;;;2.67;100.00;98968.84;5130406;27;20665;-70
2022/11/27 09:30:57;;;;;;;6.13;5.57;;;;;;;2.73;100.00;98954.31;5130200;27;20237;-70
2022/11/27 09:33:26;;;;;;;6.73;6.07;;;;;;;2.68;100.00;98957.41;5130308;27;20202;-70
2022/11/27 09:35:52;;;;;;;6.23;5.60;;;;;;;2.57;100.00;98954.16;5116366;28;20207;-70
2022/11/27 09:38:19;;;;;;;8.50;6.57;;;;;;;2.45;100.00;98935.16;5116845;28;20332;-70
2022/11/27 09:40:56;;;;;;;6.67;5.97;;;;;;;2.57;100.00;98951.53;5116647;28;20230;-69
2022/11/27 09:43:31;;;;;;;6.73;5.70;;;;;;;2.56;100.00;98965.59;5115950;28;20203;-70
2022/11/27 09:46:07;;;;;;;9.07;6.37;;;;;;;2.52;100.00;98974.78;5116150;28;20634;-70
2022/11/27 09:48:38;;;;;;;8.63;6.70;;;;;;;2.64;100.00;98960.44;5116586;28;20187;-70
2022/11/27 09:51:11;;;;;;;7.13;6.53;;;;;;;2.60;100.00;98948.59;5115891;28;20740;-70
2022/11/27 09:53:46;;;;;;;7.13;6.53;;;;;;;2.62;100.00;98946.66;5116127;28;20184;-70
2022/11/27 09:56:16;;;;;;;8.20;6.57;;;;;;;2.76;100.00;98941.72;5116325;28;20187;-70
2022/11/27 09:58:54;;;;;;;7.23;6.50;;;;;;;2.78;100.00;98933.69;5115824;28;20210;-70
2022/11/27 10:01:26;;;;;;;8.03;6.83;;;;;;;2.79;100.00;98924.84;5115863;28;20229;-70
2022/11/27 10:03:53;;;;;;;7.93;6.93;;;;;;;2.89;100.00;98915.09;5114874;28;20566;-70
2022/11/27 10:06:20;;;;;;;7.77;6.67;;;;;;;2.89;100.00;98915.09;5114810;28;20203;-70
2022/11/27 10:09:06;;;;;;;7.67;6.43;;;;;;;2.85;100.00;98914.56;5115821;28;20705;-70
2022/11/27 10:11:35;;;;;;;9.57;6.87;;;;;;;2.84;100.00;98915.53;5115690;28;20615;-70
2022/11/27 10:14:07;;;;;;;7.80;6.93;;;;;;;2.85;100.00;98917.19;5115444;28;20626;-70
2022/11/27 10:16:50;;;;;;;6.53;5.93;;;;;;;2.97;100.00;98909.91;5116096;28;20210;-70
2022/11/27 10:19:31;;;;;;;7.93;6.57;;;;;;;3.06;100.00;98915.09;5115594;28;20549;-70
2022/11/27 10:21:57;;;;;;;7.40;6.60;;;;;;;3.03;100.00;98901.44;5115729;28;20241;-71
2022/11/27 10:25:02;;;;;;;7.27;6.57;;;;;;;2.96;100.00;98892.50;5115485;28;20250;-70
2022/11/27 10:27:49;;;;;;;7.17;6.47;;;;;;;3.03;100.00;98896.19;5102372;28;20206;-70
2022/11/27 10:30:19;;;;;;;9.00;6.80;;;;;;;3.05;100.00;98897.69;5115810;28;20208;-70
2022/11/27 10:32:50;;;;;;;9.40;6.67;;;;;;;3.11;100.00;98901.53;5116062;28;20196;-70
2022/11/27 10:35:18;;;;;;;7.43;6.50;;;;;;;3.25;100.00;98898.34;5115443;28;20184;-70
2022/11/27 10:37:56;;;;;;;8.50;6.57;;;;;;;3.31;100.00;98897.72;5115634;28;20207;-70
2022/11/27 10:40:26;;;;;;;7.77;6.30;;;;;;;3.51;100.00;98899.16;5115381;28;20187;-70
2022/11/27 10:43:12;;;;;;;7.70;5.90;;;;;;;3.62;100.00;98883.16;5115086;28;20697;-70
2022/11/27 10:45:51;;;;;;;7.13;5.87;;;;;;;3.81;100.00;98888.19;5114437;28;20558;-70
2022/11/27 10:48:17;;;;;;;8.97;6.40;;;;;;;3.88;100.00;98876.09;5115404;28;20194;-70
2022/11/27 10:50:45;;;;;;;8.00;6.77;;;;;;;4.27;100.00;98869.31;5115032;28;20577;-70
2022/11/27 10:53:46;;;;;;;6.37;5.67;;;;;;;4.23;100.00;98862.72;5115341;28;20218;-70
2022/11/27 10:56:13;;;;;;;6.43;5.83;;;;;;;4.21;100.00;98864.69;5102229;28;20222;-70
2022/11/27 10:58:51;;;;;;;6.30;5.60;;;;;;;4.39;100.00;98860.16;5114905;28;20207;-70
2022/11/27 11:01:19;;;;;;;6.53;5.60;;;;;;;4.54;100.00;98861.16;5115086;28;20245;-70
2022/11/27 11:03:46;;;;;;;7.80;5.93;;;;;;;4.65;100.00;98850.34;5114598;28;20231;-70
2022/11/27 11:06:21;;;;;;;6.73;6.13;;;;;;;4.79;100.00;98844.44;5114866;28;20214;-70
2022/11/27 11:08:48;;;;;;;7.63;5.83;;;;;;;4.94;100.00;98838.34;5114831;28;20544;-70
2022/11/27 11:11:25;;;;;;;6.87;5.67;;;;;;;5.06;100.00;98829.09;5114935;28;20219;-70
2022/11/27 11:13:52;;;;;;;6.03;5.33;;;;;;;5.15;100.00;98827.31;5114910;28;20187;-70
2022/11/27 11:16:26;;;;;;;5.80;5.30;;;;;;;5.16;100.00;98813.94;5114940;28;20226;-70
2022/11/27 11:18:55;;;;;;;6.27;5.23;;;;;;;5.40;100.00;98813.91;5114569;28;20525;-70
2022/11/27 11:21:31;;;;;;;8.00;5.20;;;;;;;5.44;100.00;98807.31;5114410;27;20229;-70
2022/11/27 11:24:01;;;;;;;5.47;4.90;;;;;;;5.50;100.00;98797.88;5114232;28;20229;-70
2022/11/27 11:26:50;;;;;;;5.70;5.10;;;;;;;5.50;100.00;98782.06;5115061;28;20213;-70
2022/11/27 11:29:28;;;;;;;5.50;4.50;;;;;;;5.45;100.00;98774.69;5114357;28;20638;-70
2022/11/27 11:31:56;;;;;;;5.70;5.07;;;;;;;5.52;100.00;98774.81;5114469;28;20229;-70
2022/11/27 11:34:25;;;;;;;6.07;5.03;;;;;;;5.60;100.00;98767.69;5114011;28;20745;-70
2022/11/27 11:37:06;;;;;;;5.30;4.80;;;;;;;5.48;100.00;98761.13;5114225;28;20203;-70
2022/11/27 11:39:47;;;;;;;7.13;5.20;;;;;;;5.42;100.00;98761.03;5114073;28;20238;-70
2022/11/27 11:42:26;;;;;;;5.53;5.03;;;;;;;5.29;100.00;98769.44;5112866;28;20223;-70
2022/11/27 11:45:14;;;;;;;6.20;4.97;;;;;;;5.25;100.00;98762.84;5114093;28;20215;-70
2022/11/27 11:47:50;;;;;;;7.80;4.70;;;;;;;5.31;100.00;98761.38;5113531;28;20211;-70
2022/11/27 11:50:24;;;;;;;4.73;4.23;;;;;;;5.43;100.00;98758.19;5113714;28;20628;-70
2022/11/27 11:53:18;;;;;;;6.33;4.80;;;;;;;5.58;99.39;98745.13;5114184;28;20197;-70
2022/11/27 11:55:50;;;;;;;7.07;4.83;;;;;;;5.83;97.34;98744.06;5114018;28;20188;-70